Time;durP1;ratioP1;P1;durP2;ratioP2;P2;SDS_P1;SDS_P2;PMS_P1;PMS_P2;Temp;Humidity;BMP_temperature;BMP_pressure;BME280_temperature;BME280_humidity;BME280_pressure;Samples;Min_cycle;Max_cycle;Signal;HPM_P1;HPM_P2
2021/03/21 00:02:03;;;;;;;0.40;0.40;;;19.90;41.80;;;;;;5071179;28;20472;-71
2021/03/21 00:04:30;;;;;;;0.63;0.63;;;19.90;41.90;;;;;;5032090;28;20913;-71
2021/03/21 00:06:56;;;;;;;1.03;0.70;;;19.90;41.80;;;;;;5045213;28;20923;-71
2021/03/21 00:09:22;;;;;;;1.93;0.60;;;19.90;41.90;;;;;;5067959;28;21001;-71
2021/03/21 00:11:49;;;;;;;0.53;0.53;;;19.90;41.70;;;;;;5069618;28;20993;-70
2021/03/21 00:14:15;;;;;;;0.53;0.53;;;19.90;41.90;;;;;;5056430;28;20472;-71
2021/03/21 00:16:41;;;;;;;0.50;0.50;;;19.90;42.00;;;;;;5059531;28;20476;-71
2021/03/21 00:19:07;;;;;;;0.70;0.70;;;19.80;41.90;;;;;;5049467;28;20474;-71
2021/03/21 00:21:34;;;;;;;0.60;0.60;;;19.80;41.90;;;;;;5070596;28;20467;-71
2021/03/21 00:24:00;;;;;;;0.70;0.70;;;19.80;41.90;;;;;;5046893;28;20480;-71
2021/03/21 00:26:26;;;;;;;0.60;0.60;;;19.80;42.00;;;;;;5039241;28;20524;-71
2021/03/21 00:28:54;;;;;;;0.50;0.50;;;19.80;41.90;;;;;;5061368;27;20478;-71
2021/03/21 00:31:20;;;;;;;0.40;0.40;;;19.80;41.90;;;;;;5036711;28;20543;-71
2021/03/21 00:33:47;;;;;;;0.50;0.50;;;19.80;41.90;;;;;;5038784;28;20827;-70
2021/03/21 00:36:14;;;;;;;1.60;0.50;;;19.80;42.10;;;;;;5052405;28;20469;-70
2021/03/21 00:38:41;;;;;;;1.90;0.67;;;19.80;42.10;;;;;;5049278;28;20474;-71
2021/03/21 00:41:09;;;;;;;0.60;0.60;;;19.80;42.10;;;;;;5066863;28;20488;-70
2021/03/21 00:43:35;;;;;;;0.50;0.50;;;19.80;42.10;;;;;;5056152;28;20473;-70
2021/03/21 00:46:02;;;;;;;0.87;0.60;;;19.90;42.20;;;;;;5048027;28;20484;-70
2021/03/21 00:48:30;;;;;;;0.50;0.50;;;19.80;42.10;;;;;;5059611;28;20494;-70
2021/03/21 00:50:56;;;;;;;0.50;0.50;;;19.80;42.10;;;;;;5053082;28;20486;-70
2021/03/21 00:53:22;;;;;;;0.90;0.50;;;19.70;42.10;;;;;;5054778;28;20480;-70
2021/03/21 00:55:48;;;;;;;0.50;0.50;;;19.70;42.20;;;;;;5054052;28;21950;-70
2021/03/21 00:58:15;;;;;;;0.87;0.60;;;19.70;42.20;;;;;;5049567;28;20485;-71
2021/03/21 01:00:42;;;;;;;0.60;0.50;;;19.80;42.40;;;;;;5074294;28;21177;-71
2021/03/21 01:03:09;;;;;;;0.70;0.63;;;19.80;42.30;;;;;;5063950;28;20491;-70
2021/03/21 01:05:36;;;;;;;0.80;0.60;;;19.80;42.20;;;;;;5077480;28;20470;-70
2021/03/21 01:08:04;;;;;;;3.73;0.57;;;19.80;42.10;;;;;;5041888;28;20496;-70
2021/03/21 01:10:32;;;;;;;0.53;0.53;;;19.80;42.10;;;;;;5071502;28;20485;-72
2021/03/21 01:12:58;;;;;;;0.60;0.60;;;19.80;42.00;;;;;;5026204;28;20495;-69
2021/03/21 01:15:26;;;;;;;1.73;0.70;;;19.80;42.00;;;;;;5058343;28;20480;-70
2021/03/21 01:17:53;;;;;;;0.40;0.40;;;19.80;42.00;;;;;;5062744;28;20902;-70
2021/03/21 01:20:21;;;;;;;1.20;0.50;;;19.80;42.10;;;;;;5050684;28;20494;-70
2021/03/21 01:22:47;;;;;;;0.50;0.50;;;19.80;42.10;;;;;;5043957;28;20499;-70
2021/03/21 01:25:19;;;;;;;0.67;0.50;;;19.80;42.10;;;;;;5066049;28;20473;-71
2021/03/21 01:27:45;;;;;;;0.50;0.50;;;19.80;42.10;;;;;;5051339;28;20540;-71
2021/03/21 01:30:12;;;;;;;0.97;0.60;;;19.80;42.10;;;;;;5050712;28;20486;-71
2021/03/21 01:32:38;;;;;;;0.80;0.50;;;19.80;42.00;;;;;;5054607;28;20472;-70
2021/03/21 01:35:06;;;;;;;0.50;0.50;;;19.80;42.10;;;;;;5058666;28;20537;-70
2021/03/21 01:37:33;;;;;;;2.50;0.60;;;19.80;42.10;;;;;;5065978;28;20516;-71
2021/03/21 01:39:59;;;;;;;0.50;0.47;;;19.80;42.10;;;;;;5048460;28;20498;-70
2021/03/21 01:42:25;;;;;;;0.60;0.60;;;19.80;42.10;;;;;;5056098;28;20473;-71
2021/03/21 01:44:54;;;;;;;0.50;0.50;;;19.80;42.60;;;;;;5045164;28;20856;-71
2021/03/21 01:47:28;;;;;;;0.47;0.47;;;19.80;42.20;;;;;;5054054;28;20482;-70
2021/03/21 01:49:54;;;;;;;0.50;0.50;;;19.80;42.30;;;;;;5056806;28;20482;-70
2021/03/21 01:52:35;;;;;;;0.53;0.53;;;19.80;42.10;;;;;;5058411;28;20584;-70
2021/03/21 01:55:02;;;;;;;0.57;0.57;;;19.80;42.20;;;;;;5049537;28;20525;-69
2021/03/21 01:57:28;;;;;;;1.07;0.80;;;19.80;42.20;;;;;;5060247;28;21175;-71
2021/03/21 01:59:55;;;;;;;0.50;0.50;;;19.80;42.20;;;;;;5057010;28;20531;-70
2021/03/21 02:02:21;;;;;;;0.70;0.70;;;19.80;42.30;;;;;;5058373;28;20552;-70
2021/03/21 02:04:47;;;;;;;0.50;0.50;;;19.80;42.30;;;;;;5054681;28;20488;-70
2021/03/21 02:07:20;;;;;;;0.73;0.57;;;19.80;42.30;;;;;;5060088;27;20484;-71
2021/03/21 02:09:51;;;;;;;0.50;0.50;;;19.80;42.30;;;;;;5056140;28;20490;-70
2021/03/21 02:12:25;;;;;;;0.70;0.70;;;19.80;42.20;;;;;;5034688;28;20499;-70
2021/03/21 02:14:54;;;;;;;0.60;0.60;;;19.80;42.30;;;;;;5068209;28;20489;-70
2021/03/21 02:17:23;;;;;;;1.03;0.70;;;19.80;42.30;;;;;;5056995;28;20473;-70
2021/03/21 02:20:08;;;;;;;1.50;0.50;;;19.80;42.40;;;;;;5052133;28;20489;-70
2021/03/21 02:22:37;;;;;;;0.70;0.60;;;19.80;42.30;;;;;;5024953;28;20474;-70
2021/03/21 02:25:29;;;;;;;0.70;0.70;;;19.80;42.40;;;;;;5043947;28;20478;-70
2021/03/21 02:28:06;;;;;;;0.50;0.50;;;19.80;42.40;;;;;;5056430;28;20550;-70
2021/03/21 02:30:35;;;;;;;0.50;0.50;;;19.80;42.30;;;;;;5057222;28;20498;-70
2021/03/21 02:33:05;;;;;;;0.53;0.53;;;19.80;42.40;;;;;;5067408;28;20481;-70
2021/03/21 02:35:33;;;;;;;1.07;0.47;;;19.80;42.40;;;;;;5052609;28;20482;-70
2021/03/21 02:38:01;;;;;;;1.30;0.97;;;19.80;42.30;;;;;;5052234;28;20537;-70
2021/03/21 02:40:29;;;;;;;0.80;0.80;;;19.80;42.40;;;;;;5052470;28;20565;-71
2021/03/21 02:42:58;;;;;;;0.57;0.57;;;19.80;42.30;;;;;;5050966;28;20498;-71
2021/03/21 02:45:26;;;;;;;1.27;0.50;;;19.80;42.30;;;;;;5040946;28;20621;-70
2021/03/21 02:47:52;;;;;;;0.53;0.50;;;19.80;42.30;;;;;;5057996;28;20493;-70
2021/03/21 02:50:21;;;;;;;0.93;0.70;;;19.80;42.40;;;;;;5053041;28;20525;-70
2021/03/21 02:52:49;;;;;;;1.27;0.60;;;19.80;42.30;;;;;;5055551;28;22047;-70
2021/03/21 02:55:18;;;;;;;0.67;0.60;;;19.80;42.50;;;;;;5042352;28;20578;-71
2021/03/21 02:57:47;;;;;;;0.63;0.63;;;19.80;42.50;;;;;;5046604;28;20484;-70
2021/03/21 03:00:14;;;;;;;1.90;0.60;;;19.70;42.30;;;;;;5051526;28;20479;-70
2021/03/21 03:02:42;;;;;;;0.70;0.53;;;19.70;42.40;;;;;;5057100;28;20469;-70
2021/03/21 03:05:11;;;;;;;1.67;0.57;;;19.70;42.40;;;;;;5050807;28;20485;-70
2021/03/21 03:07:39;;;;;;;0.70;0.60;;;19.70;42.30;;;;;;5073598;28;20470;-70
2021/03/21 03:10:08;;;;;;;0.73;0.73;;;19.70;42.30;;;;;;5050275;28;20532;-70
2021/03/21 03:12:35;;;;;;;0.60;0.40;;;19.70;42.30;;;;;;5064347;28;20533;-70
2021/03/21 03:15:03;;;;;;;0.70;0.70;;;19.70;42.30;;;;;;5058395;28;20470;-70
2021/03/21 03:17:32;;;;;;;0.70;0.63;;;19.70;42.40;;;;;;5057325;28;20489;-71
2021/03/21 03:19:59;;;;;;;1.13;0.80;;;19.70;42.40;;;;;;5053643;28;20482;-70
2021/03/21 03:22:29;;;;;;;0.50;0.50;;;19.70;42.50;;;;;;5056224;28;20499;-71
2021/03/21 03:25:02;;;;;;;0.50;0.50;;;19.80;42.50;;;;;;5052185;28;20477;-71
2021/03/21 03:27:34;;;;;;;0.70;0.70;;;19.80;42.40;;;;;;5053713;28;20486;-71
2021/03/21 03:30:04;;;;;;;0.70;0.60;;;19.80;42.40;;;;;;5069628;28;20913;-68
2021/03/21 03:32:30;;;;;;;0.50;0.50;;;19.70;42.40;;;;;;5057722;28;20485;-71
2021/03/21 03:34:57;;;;;;;0.70;0.70;;;19.80;42.50;;;;;;5055119;28;20516;-70
2021/03/21 03:37:24;;;;;;;0.60;0.60;;;19.70;42.50;;;;;;5056967;28;21001;-71
2021/03/21 03:39:51;;;;;;;0.60;0.60;;;19.70;42.50;;;;;;5054607;28;20473;-70
2021/03/21 03:42:21;;;;;;;0.47;0.43;;;19.70;42.60;;;;;;5055552;28;20486;-70
2021/03/21 03:44:52;;;;;;;1.43;0.60;;;19.70;42.60;;;;;;5053502;28;20488;-70
2021/03/21 03:47:19;;;;;;;0.87;0.80;;;19.70;42.70;;;;;;5054981;28;20508;-69
2021/03/21 03:49:51;;;;;;;0.73;0.73;;;19.70;42.60;;;;;;5050799;28;20486;-70
2021/03/21 03:52:33;;;;;;;1.27;0.73;;;19.60;42.50;;;;;;5056169;28;20880;-70
2021/03/21 03:55:03;;;;;;;0.67;0.50;;;19.60;42.60;;;;;;5051905;28;20547;-71
2021/03/21 03:57:31;;;;;;;0.93;0.60;;;19.70;42.70;;;;;;5044797;28;20478;-71
2021/03/21 04:00:03;;;;;;;0.93;0.63;;;19.70;42.70;;;;;;5009717;28;20492;-71
2021/03/21 04:02:40;;;;;;;1.43;0.80;;;19.80;42.80;;;;;;5034847;28;20612;-71
2021/03/21 04:05:08;;;;;;;0.70;0.67;;;19.70;42.60;;;;;;5065630;28;20548;-70
2021/03/21 04:07:39;;;;;;;1.33;0.90;;;19.80;42.70;;;;;;5042230;28;21021;-70
2021/03/21 04:10:09;;;;;;;0.77;0.70;;;19.70;42.60;;;;;;5041050;28;21003;-70
2021/03/21 04:12:38;;;;;;;0.97;0.80;;;19.70;42.60;;;;;;5012595;28;20514;-70
2021/03/21 04:15:07;;;;;;;1.37;0.60;;;19.70;42.60;;;;;;5056772;28;20567;-70
2021/03/21 04:17:35;;;;;;;0.80;0.80;;;19.70;42.70;;;;;;5057783;28;20481;-70
2021/03/21 04:20:07;;;;;;;0.70;0.70;;;19.70;42.70;;;;;;5044376;28;20496;-70
2021/03/21 04:22:37;;;;;;;2.87;1.07;;;19.60;42.60;;;;;;5038236;28;20508;-70
2021/03/21 04:25:06;;;;;;;1.17;0.70;;;19.70;42.60;;;;;;5028279;28;20490;-70
2021/03/21 04:27:35;;;;;;;0.70;0.60;;;19.70;42.60;;;;;;5046167;28;20486;-70
2021/03/21 04:30:05;;;;;;;1.23;0.60;;;19.70;42.60;;;;;;5031495;28;20501;-69
2021/03/21 04:32:33;;;;;;;0.63;0.63;;;19.70;42.60;;;;;;5030431;28;21049;-70
2021/03/21 04:35:02;;;;;;;2.43;0.97;;;19.70;42.70;;;;;;5028154;28;20505;-70
2021/03/21 04:37:28;;;;;;;1.70;0.70;;;19.80;42.60;;;;;;5048308;28;21313;-70
2021/03/21 04:39:55;;;;;;;0.60;0.60;;;19.70;42.60;;;;;;5053738;28;21325;-71
2021/03/21 04:42:27;;;;;;;2.63;0.90;;;19.70;42.50;;;;;;5052511;28;20468;-70
2021/03/21 04:44:54;;;;;;;2.33;0.80;;;19.70;42.50;;;;;;5059535;28;20485;-71
2021/03/21 04:47:24;;;;;;;3.87;1.20;;;19.70;42.50;;;;;;5053075;28;20482;-70
2021/03/21 04:49:50;;;;;;;4.47;0.90;;;19.70;42.50;;;;;;5055284;28;20489;-70
2021/03/21 04:52:19;;;;;;;1.80;1.00;;;19.70;42.40;;;;;;5017150;28;20498;-70
2021/03/21 04:54:46;;;;;;;2.87;0.83;;;19.70;42.40;;;;;;5064920;28;20500;-70
2021/03/21 04:57:19;;;;;;;1.23;0.70;;;19.70;42.40;;;;;;5055801;28;20519;-70
2021/03/21 04:59:46;;;;;;;2.20;0.90;;;19.70;42.40;;;;;;5057674;28;20908;-70
2021/03/21 05:02:13;;;;;;;3.67;0.93;;;19.70;42.40;;;;;;5052599;28;20478;-70
2021/03/21 05:04:40;;;;;;;2.80;1.23;;;19.70;42.40;;;;;;5050698;28;20481;-70
2021/03/21 05:07:09;;;;;;;1.17;1.10;;;19.70;42.20;;;;;;5056095;28;20474;-70
2021/03/21 05:09:38;;;;;;;4.30;0.83;;;19.80;42.30;;;;;;5042642;28;20883;-70
2021/03/21 05:12:06;;;;;;;1.00;0.90;;;19.70;42.30;;;;;;5032258;28;21121;-70
2021/03/21 05:14:34;;;;;;;1.40;1.07;;;19.70;42.30;;;;;;5058845;28;21504;-70
2021/03/21 05:17:15;;;;;;;2.77;1.00;;;19.70;42.30;;;;;;5054313;28;20477;-71
2021/03/21 05:19:46;;;;;;;7.03;1.20;;;19.70;42.30;;;;;;5054577;28;20478;-70
2021/03/21 05:22:21;;;;;;;2.30;0.90;;;19.70;42.30;;;;;;5047765;28;20826;-70
2021/03/21 05:24:50;;;;;;;5.67;1.37;;;19.70;42.30;;;;;;5057562;28;20845;-70
2021/03/21 05:27:17;;;;;;;1.03;0.80;;;19.70;42.20;;;;;;5048843;28;20488;-70
2021/03/21 05:29:56;;;;;;;6.13;1.20;;;19.70;42.10;;;;;;5070066;28;20488;-70
2021/03/21 05:32:23;;;;;;;5.60;1.70;;;19.70;42.20;;;;;;5046377;28;20864;-70
2021/03/21 05:34:50;;;;;;;5.27;1.70;;;19.70;42.20;;;;;;5052126;28;20488;-71
2021/03/21 05:37:24;;;;;;;4.00;1.10;;;19.70;42.10;;;;;;5046123;28;20482;-70
2021/03/21 05:39:56;;;;;;;5.13;1.40;;;19.70;42.20;;;;;;5037565;28;20485;-70
2021/03/21 05:42:48;;;;;;;2.43;1.17;;;19.70;42.20;;;;;;5065553;28;20473;-71
2021/03/21 05:45:27;;;;;;;3.87;1.50;;;19.70;42.30;;;;;;5051909;28;20480;-71
2021/03/21 05:48:09;;;;;;;4.87;1.50;;;19.70;42.20;;;;;;5060516;28;20485;-70
2021/03/21 05:51:14;;;;;;;1.13;1.03;;;19.70;42.30;;;;;;5065633;28;20465;-70
2021/03/21 05:54:28;;;;;;;3.17;1.37;;;19.70;42.30;;;;;;5043696;28;20571;-71
2021/03/21 05:57:26;;;;;;;3.23;1.50;;;19.70;42.20;;;;;;4979163;28;21304;-70
2021/03/21 06:00:00;;;;;;;2.07;1.20;;;19.70;42.20;;;;;;5066791;28;20651;-70
2021/03/21 06:02:50;;;;;;;5.40;1.43;;;19.70;42.10;;;;;;5046060;28;20488;-70
2021/03/21 06:05:42;;;;;;;8.10;1.63;;;19.70;42.10;;;;;;5049901;28;20510;-70
2021/03/21 06:08:22;;;;;;;8.60;1.73;;;19.70;42.10;;;;;;5049173;28;21105;-69
2021/03/21 06:11:30;;;;;;;7.30;2.00;;;19.70;41.90;;;;;;5068297;28;20468;-70
2021/03/21 06:14:33;;;;;;;2.97;1.27;;;19.70;41.90;;;;;;5068865;28;20484;-71
2021/03/21 06:17:29;;;;;;;6.83;2.20;;;19.70;41.80;;;;;;5042655;28;21473;-71
2021/03/21 06:20:19;;;;;;;3.57;1.77;;;19.70;41.70;;;;;;5067583;28;20476;-70
2021/03/21 06:23:20;;;;;;;5.07;1.77;;;19.80;41.80;;;;;;5054698;28;20473;-70
2021/03/21 06:25:52;;;;;;;9.87;2.10;;;19.80;42.50;;;;;;4996719;28;20500;-70
2021/03/21 06:29:11;;;;;;;5.03;1.70;;;19.80;41.60;;;;;;5030759;28;20550;-70
2021/03/21 06:31:46;;;;;;;4.90;1.80;;;19.80;41.60;;;;;;5059697;28;20478;-70
2021/03/21 06:34:19;;;;;;;2.67;1.60;;;19.90;41.60;;;;;;5049418;28;21512;-70
2021/03/21 06:36:46;;;;;;;7.83;2.17;;;19.90;41.60;;;;;;5024462;28;20472;-70
2021/03/21 06:39:26;;;;;;;3.83;1.30;;;19.90;41.40;;;;;;5034823;28;20862;-71
2021/03/21 06:42:18;;;;;;;5.50;1.97;;;20.00;41.40;;;;;;5050618;28;20477;-71
2021/03/21 06:44:50;;;;;;;7.57;2.30;;;20.00;41.40;;;;;;5027862;28;20492;-70
2021/03/21 06:47:32;;;;;;;7.23;1.97;;;20.00;41.40;;;;;;5043603;28;20485;-70
2021/03/21 06:50:31;;;;;;;6.50;2.80;;;20.00;41.40;;;;;;5043014;28;20483;-70
2021/03/21 06:53:01;;;;;;;5.07;2.60;;;19.90;41.30;;;;;;5018832;28;20478;-71
2021/03/21 06:55:32;;;;;;;11.90;2.30;;;19.90;41.40;;;;;;5064017;28;20998;-72
2021/03/21 06:58:44;;;;;;;6.50;2.10;;;19.90;41.50;;;;;;5043847;28;20527;-71
2021/03/21 07:01:26;;;;;;;6.37;1.60;;;19.90;41.60;;;;;;5044959;28;20479;-71
2021/03/21 07:04:29;;;;;;;6.20;1.83;;;19.90;41.50;;;;;;5049474;28;20574;-71
2021/03/21 07:07:41;;;;;;;8.63;2.03;;;20.00;41.50;;;;;;5063301;28;20548;-71
2021/03/21 07:10:50;;;;;;;8.40;2.23;;;20.00;41.40;;;;;;5054628;28;20486;-71
2021/03/21 07:13:56;;;;;;;7.63;2.30;;;20.00;41.40;;;;;;5046612;28;20477;-70
2021/03/21 07:16:55;;;;;;;7.87;2.10;;;20.00;41.30;;;;;;4965192;28;20489;-70
2021/03/21 07:19:52;;;;;;;4.37;2.43;;;20.00;41.40;;;;;;5052437;28;20480;-70
2021/03/21 07:23:05;;;;;;;6.93;2.20;;;20.00;41.30;;;;;;5064042;28;20471;-70
2021/03/21 07:26:01;;;;;;;4.83;1.67;;;20.00;41.40;;;;;;5044384;28;20487;-71
2021/03/21 07:29:09;;;;;;;6.77;2.47;;;20.00;41.30;;;;;;5048535;28;20493;-71
2021/03/21 07:31:52;;;;;;;10.13;3.00;;;20.00;41.20;;;;;;5030668;28;20465;-70
2021/03/21 07:34:33;;;;;;;9.20;2.60;;;20.00;41.20;;;;;;5052422;28;20481;-70
2021/03/21 07:37:02;;;;;;;16.20;3.10;;;20.00;41.10;;;;;;5059325;28;20477;-71
2021/03/21 07:39:41;;;;;;;9.63;2.30;;;20.00;41.10;;;;;;5056006;28;21019;-70
2021/03/21 07:42:17;;;;;;;7.57;2.67;;;20.00;41.10;;;;;;5059838;28;20554;-70
2021/03/21 07:45:19;;;;;;;10.53;1.80;;;20.10;41.40;;;;;;5064914;28;20525;-71
2021/03/21 07:47:56;;;;;;;7.97;2.90;;;20.10;41.20;;;;;;5030945;28;20496;-70
2021/03/21 07:50:28;;;;;;;8.77;2.07;;;20.00;41.10;;;;;;5054278;28;20492;-70
2021/03/21 07:53:01;;;;;;;5.20;2.50;;;20.00;41.90;;;;;;5041786;28;21258;-70
2021/03/21 07:55:29;;;;;;;8.07;2.80;;;20.10;41.20;;;;;;5049972;28;20537;-70
2021/03/21 07:58:02;;;;;;;5.37;1.53;;;20.10;41.30;;;;;;5030941;28;20497;-70
2021/03/21 08:00:28;;;;;;;7.97;1.90;;;20.10;41.20;;;;;;5034971;28;20483;-71
2021/03/21 08:02:56;;;;;;;6.23;2.43;;;20.10;41.20;;;;;;5071629;28;20478;-70
2021/03/21 08:05:23;;;;;;;6.43;1.90;;;20.10;41.20;;;;;;5057026;28;20482;-70
2021/03/21 08:07:51;;;;;;;16.50;2.80;;;20.20;41.20;;;;;;5052924;28;20874;-70
2021/03/21 08:10:21;;;;;;;5.27;2.63;;;20.20;41.20;;;;;;5046438;28;20482;-70
2021/03/21 08:12:50;;;;;;;9.13;2.37;;;20.20;41.10;;;;;;5073191;28;20592;-70
2021/03/21 08:15:19;;;;;;;7.60;2.73;;;20.20;41.20;;;;;;5042710;28;20490;-70
2021/03/21 08:17:48;;;;;;;4.07;1.90;;;20.10;41.90;;;;;;5045102;28;21033;-71
2021/03/21 08:20:17;;;;;;;5.63;2.00;;;20.10;41.20;;;;;;5041774;28;20511;-71
2021/03/21 08:22:43;;;;;;;6.43;2.70;;;20.10;41.30;;;;;;5047066;28;20517;-71
2021/03/21 08:25:24;;;;;;;11.07;2.70;;;20.10;41.30;;;;;;5033191;28;20524;-70
2021/03/21 08:27:51;;;;;;;10.20;2.70;;;20.10;41.40;;;;;;5047812;28;20535;-71
2021/03/21 08:30:19;;;;;;;11.90;2.23;;;20.10;41.40;;;;;;5063992;28;21103;-70
2021/03/21 08:32:55;;;;;;;8.27;2.30;;;20.10;41.40;;;;;;5054790;28;20484;-71
2021/03/21 08:35:22;;;;;;;10.47;2.27;;;20.10;41.30;;;;;;5048742;28;20492;-71
2021/03/21 08:37:49;;;;;;;7.63;2.03;;;20.10;41.40;;;;;;5070351;28;20547;-71
2021/03/21 08:40:22;;;;;;;6.70;1.80;;;20.10;41.40;;;;;;5041096;28;20564;-70
2021/03/21 08:42:49;;;;;;;8.77;1.87;;;20.10;41.30;;;;;;5053593;28;20535;-70
2021/03/21 08:45:23;;;;;;;6.67;2.53;;;20.20;41.20;;;;;;5040898;28;20498;-71
2021/03/21 08:47:57;;;;;;;5.03;2.17;;;20.20;41.20;;;;;;5070279;28;20472;-70
2021/03/21 08:50:42;;;;;;;6.70;2.37;;;20.20;41.20;;;;;;5041245;28;20492;-71
2021/03/21 08:53:23;;;;;;;10.40;2.80;;;20.10;41.20;;;;;;5070486;28;20607;-70
2021/03/21 08:55:49;;;;;;;6.83;2.13;;;20.10;41.30;;;;;;5052220;28;21018;-70
2021/03/21 08:58:22;;;;;;;5.20;2.57;;;20.10;41.30;;;;;;5059736;28;21435;-71
2021/03/21 09:00:49;;;;;;;11.20;2.03;;;20.10;41.40;;;;;;5055066;28;20477;-70
2021/03/21 09:03:19;;;;;;;5.03;2.13;;;20.10;41.50;;;;;;5074388;28;20480;-71
2021/03/21 09:05:52;;;;;;;9.63;2.10;;;20.10;41.50;;;;;;5065433;28;20488;-71
2021/03/21 09:08:18;;;;;;;8.73;2.67;;;20.10;41.50;;;;;;5075107;28;20511;-70
2021/03/21 09:10:50;;;;;;;4.80;1.90;;;20.10;41.50;;;;;;5057432;28;20484;-70
2021/03/21 09:13:19;;;;;;;5.80;3.17;;;20.10;41.50;;;;;;5071109;28;20480;-70
2021/03/21 09:15:45;;;;;;;10.43;3.80;;;20.10;41.40;;;;;;5062290;28;20996;-71
2021/03/21 09:18:25;;;;;;;7.27;2.20;;;20.10;41.50;;;;;;5059158;28;20485;-71
2021/03/21 09:21:15;;;;;;;5.63;2.13;;;20.20;41.50;;;;;;5069120;28;20487;-71
2021/03/21 09:23:43;;;;;;;4.30;2.23;;;20.20;41.40;;;;;;5052356;28;20477;-71
2021/03/21 09:26:27;;;;;;;7.40;3.10;;;20.20;41.40;;;;;;5070677;28;20479;-71
2021/03/21 09:28:54;;;;;;;10.07;2.53;;;20.20;41.40;;;;;;5063703;28;20485;-71
2021/03/21 09:31:20;;;;;;;8.00;3.10;;;20.10;41.30;;;;;;5057609;28;20476;-71
2021/03/21 09:33:49;;;;;;;7.93;2.30;;;20.10;41.40;;;;;;5064144;28;20497;-71
2021/03/21 09:36:16;;;;;;;7.17;2.40;;;20.10;41.50;;;;;;5040308;28;20484;-70
2021/03/21 09:38:45;;;;;;;5.93;2.30;;;20.10;41.50;;;;;;5052004;28;20477;-69
2021/03/21 09:41:13;;;;;;;5.90;1.90;;;20.10;41.50;;;;;;5018216;28;20489;-70
2021/03/21 09:43:41;;;;;;;15.23;2.97;;;20.10;41.50;;;;;;5051864;28;20486;-70
2021/03/21 09:46:24;;;;;;;6.83;2.03;;;20.10;41.50;;;;;;5064663;28;20485;-70
2021/03/21 09:49:05;;;;;;;5.67;2.57;;;20.10;41.60;;;;;;5049117;28;20736;-70
2021/03/21 09:51:43;;;;;;;4.40;1.63;;;20.00;41.40;;;;;;5053418;28;20498;-71
2021/03/21 09:54:15;;;;;;;3.30;1.97;;;20.10;41.50;;;;;;5051226;28;20485;-71
2021/03/21 09:56:46;;;;;;;6.23;2.43;;;20.10;41.50;;;;;;5056576;28;20481;-70
2021/03/21 09:59:15;;;;;;;6.43;2.97;;;20.10;41.50;;;;;;5052323;28;20489;-70
2021/03/21 10:01:43;;;;;;;6.50;1.97;;;20.10;41.50;;;;;;5076731;28;20474;-70
2021/03/21 10:04:20;;;;;;;6.90;1.93;;;20.00;41.50;;;;;;5058823;28;20519;-70
2021/03/21 10:06:46;;;;;;;6.07;2.13;;;20.10;41.50;;;;;;5068395;28;20482;-71
2021/03/21 10:09:13;;;;;;;4.40;1.93;;;20.00;41.50;;;;;;5060278;28;20523;-70
2021/03/21 10:11:42;;;;;;;3.53;2.03;;;20.10;41.60;;;;;;5046172;28;20488;-70
2021/03/21 10:14:49;;;;;;;6.37;1.93;;;20.10;41.70;;;;;;5037966;28;20481;-70
2021/03/21 10:17:40;;;;;;;5.30;2.70;;;20.10;41.60;;;;;;5038955;28;20882;-70
2021/03/21 10:20:07;;;;;;;4.40;1.73;;;20.10;41.50;;;;;;5077581;28;20899;-71
2021/03/21 10:22:57;;;;;;;3.10;1.73;;;20.10;41.50;;;;;;5064483;28;20449;-71
2021/03/21 10:25:51;;;;;;;7.20;2.27;;;20.10;41.40;;;;;;5052725;28;21212;-69
2021/03/21 10:28:39;;;;;;;4.00;1.60;;;20.10;41.40;;;;;;5051141;28;20484;-71
2021/03/21 10:31:32;;;;;;;9.33;2.37;;;20.10;41.50;;;;;;5055749;28;20477;-70
2021/03/21 10:34:39;;;;;;;9.10;2.73;;;20.10;41.50;;;;;;5063632;28;20521;-71
2021/03/21 10:37:08;;;;;;;4.40;2.10;;;20.10;41.50;;;;;;5055995;28;20493;-70
2021/03/21 10:39:57;;;;;;;5.03;2.13;;;20.10;41.60;;;;;;5050711;28;20470;-71
2021/03/21 10:42:38;;;;;;;5.37;2.10;;;20.10;41.70;;;;;;5049810;28;20555;-70
2021/03/21 10:45:06;;;;;;;5.00;1.67;;;20.10;41.70;;;;;;5056890;28;20490;-70
2021/03/21 10:47:49;;;;;;;3.97;1.57;;;20.10;41.70;;;;;;5051519;28;20474;-70
2021/03/21 10:50:45;;;;;;;3.30;2.03;;;20.10;41.50;;;;;;5054665;28;20474;-70
2021/03/21 10:53:18;;;;;;;3.77;1.73;;;20.20;41.40;;;;;;5053844;28;20477;-70
2021/03/21 10:55:59;;;;;;;5.00;1.87;;;20.20;41.40;;;;;;5032020;28;20479;-71
2021/03/21 10:58:31;;;;;;;6.10;2.20;;;20.20;41.50;;;;;;5029910;28;20515;-71
2021/03/21 11:01:25;;;;;;;3.90;1.73;;;20.10;41.30;;;;;;5073619;28;20485;-71
2021/03/21 11:04:03;;;;;;;5.43;1.90;;;20.10;41.40;;;;;;5021697;28;20497;-70
2021/03/21 11:06:30;;;;;;;6.73;2.30;;;20.10;41.40;;;;;;5049802;28;21383;-71
2021/03/21 11:09:08;;;;;;;5.97;1.80;;;20.10;41.50;;;;;;5026875;28;20938;-71
2021/03/21 11:11:35;;;;;;;5.77;1.77;;;20.10;41.50;;;;;;5038603;28;20486;-71
2021/03/21 11:14:11;;;;;;;3.47;1.63;;;20.10;41.50;;;;;;5047151;28;20474;-70
2021/03/21 11:16:37;;;;;;;3.63;1.80;;;20.10;42.30;;;;;;5058538;28;20896;-71
2021/03/21 11:19:04;;;;;;;3.50;2.40;;;20.10;41.60;;;;;;5061505;28;20942;-71
2021/03/21 11:21:32;;;;;;;7.47;1.67;;;20.10;41.60;;;;;;5049963;28;21224;-71
2021/03/21 11:24:01;;;;;;;5.20;1.60;;;20.10;41.60;;;;;;5069088;28;20870;-71
2021/03/21 11:26:28;;;;;;;2.50;1.17;;;20.10;41.60;;;;;;5040362;28;20855;-71
2021/03/21 11:29:09;;;;;;;4.63;1.30;;;20.10;41.60;;;;;;5088486;28;20487;-70
2021/03/21 11:31:37;;;;;;;3.57;1.20;;;20.20;41.60;;;;;;5085041;28;20476;-70
2021/03/21 11:34:14;;;;;;;2.97;1.47;;;20.20;41.60;;;;;;5090801;28;20486;-71
2021/03/21 11:36:41;;;;;;;2.40;1.20;;;20.20;41.60;;;;;;5049023;28;20470;-70
2021/03/21 11:39:13;;;;;;;2.90;1.30;;;20.20;41.60;;;;;;5056564;28;20488;-70
2021/03/21 11:41:39;;;;;;;2.23;1.50;;;20.20;41.60;;;;;;5044622;28;20657;-70
2021/03/21 11:44:10;;;;;;;2.73;1.40;;;20.10;42.40;;;;;;5023440;28;20486;-70
2021/03/21 11:46:37;;;;;;;3.30;1.40;;;20.10;41.60;;;;;;5038115;28;20471;-70
2021/03/21 11:49:03;;;;;;;5.60;2.03;;;20.10;42.50;;;;;;5057963;28;20505;-70
2021/03/21 11:51:29;;;;;;;4.37;1.60;;;20.10;41.70;;;;;;5062989;28;20477;-70
2021/03/21 11:53:55;;;;;;;3.93;1.77;;;20.10;41.70;;;;;;5058641;28;20483;-71
2021/03/21 11:56:25;;;;;;;2.30;1.30;;;20.00;41.70;;;;;;5047178;28;20501;-70
2021/03/21 11:58:54;;;;;;;4.93;1.70;;;20.00;41.70;;;;;;5064476;28;20961;-70
2021/03/21 12:01:22;;;;;;;3.60;1.70;;;20.00;42.50;;;;;;5046896;28;20486;-71
2021/03/21 12:03:49;;;;;;;2.13;1.30;;;20.00;41.80;;;;;;5048993;28;20501;-70
2021/03/21 12:06:30;;;;;;;2.00;0.93;;;20.00;41.70;;;;;;5068153;28;21024;-71
2021/03/21 12:08:57;;;;;;;5.87;2.00;;;20.10;41.60;;;;;;5035206;28;20590;-71
2021/03/21 12:11:35;;;;;;;1.93;0.93;;;20.10;41.70;;;;;;5060311;28;20473;-70
2021/03/21 12:14:23;;;;;;;2.70;1.40;;;20.10;41.70;;;;;;5056905;28;20485;-70
2021/03/21 12:16:50;;;;;;;2.40;1.03;;;20.10;41.70;;;;;;5060510;28;21136;-70
2021/03/21 12:19:27;;;;;;;3.13;1.20;;;20.10;41.70;;;;;;5050927;28;21073;-71
2021/03/21 12:21:54;;;;;;;4.83;1.63;;;20.10;41.60;;;;;;5051673;28;21108;-72
2021/03/21 12:24:21;;;;;;;2.60;1.10;;;20.20;41.70;;;;;;5034476;28;20494;-71
2021/03/21 12:26:54;;;;;;;5.33;1.70;;;20.20;41.60;;;;;;5068152;28;20515;-72
2021/03/21 12:29:41;;;;;;;3.50;1.73;;;20.20;41.60;;;;;;5043880;28;20489;-71
2021/03/21 12:32:30;;;;;;;5.10;1.27;;;20.20;41.60;;;;;;5046093;28;20493;-71
2021/03/21 12:34:56;;;;;;;3.23;1.40;;;20.20;41.60;;;;;;5062031;28;20481;-71
2021/03/21 12:37:25;;;;;;;1.10;1.10;;;20.20;41.60;;;;;;5044277;28;20994;-70
2021/03/21 12:39:54;;;;;;;2.00;1.40;;;20.20;41.60;;;;;;5049833;28;21070;-70
2021/03/21 12:42:32;;;;;;;1.23;1.03;;;20.20;41.60;;;;;;5060171;28;20482;-70
2021/03/21 12:45:17;;;;;;;2.80;1.10;;;20.20;41.70;;;;;;5053128;28;20982;-70
2021/03/21 12:47:44;;;;;;;2.27;1.20;;;20.20;41.50;;;;;;5033787;28;20472;-71
2021/03/21 12:50:44;;;;;;;2.40;1.23;;;20.20;41.60;;;;;;5047511;28;20519;-71
2021/03/21 12:53:11;;;;;;;6.83;1.57;;;20.20;41.50;;;;;;5038834;28;20510;-71
2021/03/21 12:55:37;;;;;;;1.50;1.20;;;20.20;41.50;;;;;;5035392;28;20543;-71
2021/03/21 12:58:04;;;;;;;7.93;1.93;;;20.20;41.60;;;;;;5049819;28;21213;-69
2021/03/21 13:00:32;;;;;;;3.63;2.40;;;20.20;41.60;;;;;;5063476;28;20489;-70
2021/03/21 13:02:59;;;;;;;2.50;1.00;;;20.10;41.50;;;;;;5046135;28;20508;-70
2021/03/21 13:05:27;;;;;;;1.90;1.30;;;20.10;41.60;;;;;;5057351;28;20485;-71
2021/03/21 13:07:53;;;;;;;3.13;1.37;;;20.10;41.50;;;;;;5060649;28;20476;-70
2021/03/21 13:10:19;;;;;;;3.57;1.23;;;20.10;41.50;;;;;;5054622;28;20478;-71
2021/03/21 13:12:45;;;;;;;1.90;1.27;;;20.10;41.50;;;;;;5046988;28;21020;-71
2021/03/21 13:15:13;;;;;;;4.00;1.67;;;20.10;41.40;;;;;;5071670;28;20944;-71
2021/03/21 13:17:39;;;;;;;3.33;1.50;;;20.20;41.50;;;;;;5079137;28;20486;-71
2021/03/21 13:20:06;;;;;;;3.70;1.43;;;20.20;41.50;;;;;;5049531;28;20481;-71